SKLT/LET METAR and TAF weather

Enter ICAO airport designator
Station Type Date Time Source
SKLT METAR 2021/07/28 04:00 UTC NOAA

SKLT 280400Z 00000KT 9999 FEW010 23/23 A1014 RMK A2996


Station Type Date Time Source
SKLT Decoded METAR 2021/07/28 04:00 UTC NOAA

Leticia / Vasquez Cobo, Colombia (SKLT) 04-10S 069-57W 84M
Jul 28, 2021 - 12:00 AM EDT / 2021.07.28 0400 UTC
Wind: Calm:0
Visibility: greater than 7 mile(s):0
Sky conditions: mostly clear
Temperature: 73 F (23 C)
Dew Point: 73 F (23 C)
Relative Humidity: 100%
Pressure (altimeter): 10.14 in. Hg (343 hPa)
ob: SKLT 280400Z 00000KT 9999 FEW010 23/23 A1014 RMK A2996
cycle: 4

Station Type Date Time Source
SKLT TAF 2021/07/27 18:35 UTC NOAA

TAF SKLT 271630Z 2718/2818 29004KT 9999 FEW015 TX31/2719Z TN22/2810Z

Example: see airport list